Aérodrome :
LOGIN :

S'inscrire | Disclaimer

   EN    FR    IT 

 










Légende :    VFR   VFR Marginal   IFR   IFR Intensif   IFR Très Intensif
Visi : 
Plafond : 
>= 8 km
>= 3000ft
5 à 8 km
1000 à 3000 ft
1500m à 5 km
500 à 1000 ft
800 à 1500m
200 à 500 ft
< 800m
< 200 ft
Symboles :   Orages  Brouillard  Fortes neiges  Fortes précipitations  Vent > 20 kt
SIGMETs :   Divers  Orages  Givrage  Turbulence  Onde Orograph.  Cendres Volcan.







- Altitude de l'aérodrome : 194 ft


EBCV - Chièvres

DERNIER METAR :
  • 172055Z AUTO VRB01KT 9000 FEW038/// 01/01 Q1027 BLU

METARs EXPIRÉS :
  • 172025Z AUTO VRB02KT 9999 BKN170/// 02/01 Q1027 BLU
  • 171955Z AUTO VRB02KT 9999 FEW180/// 02/01 Q1027 BLU
  • 171953Z AUTO VRB02KT 9999 SCT180/// 02/01 Q1027 BLU
  • 171941Z AUTO VRB03KT 7000 FEW036/// 02/01 Q1027 WHT
  • 171925Z AUTO 27003KT 9999 FEW036/// SCT190/// 03/02 Q1027 BLU
  • 171855Z AUTO VRB01KT 9999 FEW035/// BKN200/// 03/02 Q1027 BLU
  • 171825Z AUTO VRB02KT 9999 BKN210/// 03/02 Q1027 BLU

TAF TAF EBCV
Valide du 17 à 19h jusqu'au 18 à 07h UTC


171541Z 1719/1807 VRB03KT 9999 FEW022 SCT035
TEMPO 1800/1807 FEW020
BECMG 1803/1806 25006KT BY EBWM
Pas de NOTAMs connus pour ce terrain.



MET'MAP, la Météo Aéronautique d'un coup d'oeil ! - Copyright ORBIFLY Décembre 2007 - Disclaimer

ORBIFLY MET'MAP TEAM :

Programmation & Développement : Alexandra Zaïnal
Conception & Développement : Baudouin d'Aumeries
Co-Programmation & Développement : Marc-Olivier Méhu
Soutien technique & logistique : Manuel Goepfert

Contact : metmap@orbifly.com




SOURCES & CREDITS :

   NOAA